sensor_id;sensor_type;location;lat;lon;timestamp;temperature;humidity
3614;DHT22;1821;50.936;6.854;2023-05-19T00:00:04;10.20;99.90
3614;DHT22;1821;50.936;6.854;2023-05-19T00:00:47;9.90;99.90
3614;DHT22;1821;50.936;6.854;2023-05-19T00:01:31;10.50;99.90
3614;DHT22;1821;50.936;6.854;2023-05-19T00:02:13;10.10;99.90
3614;DHT22;1821;50.936;6.854;2023-05-19T00:02:56;10.50;99.90
3614;DHT22;1821;50.936;6.854;2023-05-19T00:03:52;10.10;99.90
3614;DHT22;1821;50.936;6.854;2023-05-19T00:04:34;10.40;99.90
3614;DHT22;1821;50.936;6.854;2023-05-19T00:06:01;10.50;99.90
3614;DHT22;1821;50.936;6.854;2023-05-19T00:06:49;10.30;99.90
3614;DHT22;1821;50.936;6.854;2023-05-19T00:07:33;10.20;99.90
3614;DHT22;1821;50.936;6.854;2023-05-19T00:08:17;10.00;99.90
3614;DHT22;1821;50.936;6.854;2023-05-19T00:09:04;10.50;99.90
3614;DHT22;1821;50.936;6.854;2023-05-19T00:09:48;10.00;99.90
3614;DHT22;1821;50.936;6.854;2023-05-19T00:10:32;10.00;99.90
3614;DHT22;1821;50.936;6.854;2023-05-19T00:11:15;10.10;99.90
3614;DHT22;1821;50.936;6.854;2023-05-19T00:11:57;9.90;99.90
3614;DHT22;1821;50.936;6.854;2023-05-19T00:12:40;10.10;99.90
3614;DHT22;1821;50.936;6.854;2023-05-19T00:13:22;10.10;99.90
3614;DHT22;1821;50.936;6.854;2023-05-19T00:14:06;10.20;99.90
3614;DHT22;1821;50.936;6.854;2023-05-19T00:14:49;10.40;99.90
3614;DHT22;1821;50.936;6.854;2023-05-19T00:15:31;9.80;99.90
3614;DHT22;1821;50.936;6.854;2023-05-19T00:16:13;9.90;99.90
3614;DHT22;1821;50.936;6.854;2023-05-19T00:16:55;10.30;99.90
3614;DHT22;1821;50.936;6.854;2023-05-19T00:17:40;9.80;99.90
3614;DHT22;1821;50.936;6.854;2023-05-19T00:18:27;10.30;99.90
3614;DHT22;1821;50.936;6.854;2023-05-19T00:19:12;9.80;99.90
3614;DHT22;1821;50.936;6.854;2023-05-19T00:19:55;10.00;99.90
3614;DHT22;1821;50.936;6.854;2023-05-19T00:20:37;10.30;99.90
3614;DHT22;1821;50.936;6.854;2023-05-19T00:21:19;9.90;99.90
3614;DHT22;1821;50.936;6.854;2023-05-19T00:22:01;10.00;99.90
3614;DHT22;1821;50.936;6.854;2023-05-19T00:22:43;10.10;99.90
3614;DHT22;1821;50.936;6.854;2023-05-19T00:23:25;9.80;99.90
3614;DHT22;1821;50.936;6.854;2023-05-19T00:24:07;9.70;99.90
3614;DHT22;1821;50.936;6.854;2023-05-19T00:24:49;9.70;99.90
3614;DHT22;1821;50.936;6.854;2023-05-19T00:25:31;10.30;99.90
3614;DHT22;1821;50.936;6.854;2023-05-19T00:26:16;9.90;99.90
3614;DHT22;1821;50.936;6.854;2023-05-19T00:26:57;9.90;99.90
3614;DHT22;1821;50.936;6.854;2023-05-19T00:27:39;9.90;99.90
3614;DHT22;1821;50.936;6.854;2023-05-19T00:28:21;10.10;99.90
3614;DHT22;1821;50.936;6.854;2023-05-19T00:29:03;10.10;99.90
3614;DHT22;1821;50.936;6.854;2023-05-19T00:29:45;9.70;99.90
3614;DHT22;1821;50.936;6.854;2023-05-19T00:30:28;10.30;99.90
3614;DHT22;1821;50.936;6.854;2023-05-19T00:31:56;10.10;99.90
3614;DHT22;1821;50.936;6.854;2023-05-19T00:32:37;9.90;99.90
3614;DHT22;1821;50.936;6.854;2023-05-19T00:33:20;9.60;99.90
3614;DHT22;1821;50.936;6.854;2023-05-19T00:34:02;9.80;99.90
3614;DHT22;1821;50.936;6.854;2023-05-19T00:34:44;6.90;99.90
3614;DHT22;1821;50.936;6.854;2023-05-19T00:35:30;10.30;99.90
3614;DHT22;1821;50.936;6.854;2023-05-19T00:36:12;10.00;99.90
3614;DHT22;1821;50.936;6.854;2023-05-19T00:36:54;10.20;99.90
3614;DHT22;1821;50.936;6.854;2023-05-19T00:37:36;10.20;99.90
3614;DHT22;1821;50.936;6.854;2023-05-19T00:38:20;10.10;99.90
3614;DHT22;1821;50.936;6.854;2023-05-19T00:39:02;9.70;99.90
3614;DHT22;1821;50.936;6.854;2023-05-19T00:39:44;9.90;99.90
3614;DHT22;1821;50.936;6.854;2023-05-19T00:40:28;9.60;99.90
3614;DHT22;1821;50.936;6.854;2023-05-19T00:41:12;9.80;99.90
3614;DHT22;1821;50.936;6.854;2023-05-19T00:41:54;9.60;99.90
3614;DHT22;1821;50.936;6.854;2023-05-19T00:44:03;10.10;99.90
3614;DHT22;1821;50.936;6.854;2023-05-19T00:44:47;9.70;99.90
3614;DHT22;1821;50.936;6.854;2023-05-19T00:45:30;9.60;99.90
3614;DHT22;1821;50.936;6.854;2023-05-19T00:46:12;9.50;99.90
3614;DHT22;1821;50.936;6.854;2023-05-19T00:46:54;9.90;99.90
3614;DHT22;1821;50.936;6.854;2023-05-19T00:47:36;10.00;99.90
3614;DHT22;1821;50.936;6.854;2023-05-19T00:48:20;9.80;99.90
3614;DHT22;1821;50.936;6.854;2023-05-19T00:49:03;10.00;99.90
3614;DHT22;1821;50.936;6.854;2023-05-19T00:49:45;9.60;99.90
3614;DHT22;1821;50.936;6.854;2023-05-19T00:51:11;9.50;99.90
3614;DHT22;1821;50.936;6.854;2023-05-19T00:51:59;10.20;99.90
3614;DHT22;1821;50.936;6.854;2023-05-19T00:52:41;9.60;99.90
3614;DHT22;1821;50.936;6.854;2023-05-19T00:54:06;10.00;99.90
3614;DHT22;1821;50.936;6.854;2023-05-19T00:54:51;9.50;99.90
3614;DHT22;1821;50.936;6.854;2023-05-19T00:55:36;9.90;99.90
3614;DHT22;1821;50.936;6.854;2023-05-19T00:56:22;9.70;99.90
3614;DHT22;1821;50.936;6.854;2023-05-19T00:57:04;9.50;99.90
3614;DHT22;1821;50.936;6.854;2023-05-19T00:57:47;9.50;99.90
3614;DHT22;1821;50.936;6.854;2023-05-19T00:58:30;9.70;99.90
3614;DHT22;1821;50.936;6.854;2023-05-19T00:59:13;9.90;99.90
3614;DHT22;1821;50.936;6.854;2023-05-19T00:59:58;9.60;99.90
3614;DHT22;1821;50.936;6.854;2023-05-19T01:00:42;9.50;99.90
3614;DHT22;1821;50.936;6.854;2023-05-19T01:01:25;9.80;99.90
3614;DHT22;1821;50.936;6.854;2023-05-19T01:02:07;9.80;99.90
3614;DHT22;1821;50.936;6.854;2023-05-19T01:02:49;9.40;99.90
3614;DHT22;1821;50.936;6.854;2023-05-19T01:03:34;9.40;99.90
3614;DHT22;1821;50.936;6.854;2023-05-19T01:04:20;9.80;99.90
3614;DHT22;1821;50.936;6.854;2023-05-19T01:05:02;9.50;99.90
3614;DHT22;1821;50.936;6.854;2023-05-19T01:05:45;9.40;99.90
3614;DHT22;1821;50.936;6.854;2023-05-19T01:06:28;9.80;99.90
3614;DHT22;1821;50.936;6.854;2023-05-19T01:07:12;9.50;99.90
3614;DHT22;1821;50.936;6.854;2023-05-19T01:07:55;9.40;99.90
3614;DHT22;1821;50.936;6.854;2023-05-19T01:09:21;9.20;99.90
3614;DHT22;1821;50.936;6.854;2023-05-19T01:10:06;9.20;99.90
3614;DHT22;1821;50.936;6.854;2023-05-19T01:10:48;8.90;99.90
3614;DHT22;1821;50.936;6.854;2023-05-19T01:11:32;9.20;99.90
3614;DHT22;1821;50.936;6.854;2023-05-19T01:12:14;9.40;99.90
3614;DHT22;1821;50.936;6.854;2023-05-19T01:12:56;9.20;99.90
3614;DHT22;1821;50.936;6.854;2023-05-19T01:14:22;9.40;99.90
3614;DHT22;1821;50.936;6.854;2023-05-19T01:15:05;9.50;99.90
3614;DHT22;1821;50.936;6.854;2023-05-19T01:16:53;9.10;99.90
3614;DHT22;1821;50.936;6.854;2023-05-19T01:17:47;9.60;99.90
3614;DHT22;1821;50.936;6.854;2023-05-19T01:18:55;9.10;99.90
3614;DHT22;1821;50.936;6.854;2023-05-19T01:20:43;9.20;99.90
3614;DHT22;1821;50.936;6.854;2023-05-19T01:23:58;9.00;99.90
3614;DHT22;1821;50.936;6.854;2023-05-19T01:25:02;9.20;99.90
3614;DHT22;1821;50.936;6.854;2023-05-19T01:28:15;9.20;99.90
3614;DHT22;1821;50.936;6.854;2023-05-19T01:30:07;9.40;99.90
3614;DHT22;1821;50.936;6.854;2023-05-19T01:30:41;9.50;99.90
3614;DHT22;1821;50.936;6.854;2023-05-19T01:31:26;9.50;99.90
3614;DHT22;1821;50.936;6.854;2023-05-19T01:32:09;9.20;99.90
3614;DHT22;1821;50.936;6.854;2023-05-19T01:33:01;8.90;99.90
3614;DHT22;1821;50.936;6.854;2023-05-19T01:33:47;9.10;99.90
3614;DHT22;1821;50.936;6.854;2023-05-19T01:34:30;9.10;99.90
3614;DHT22;1821;50.936;6.854;2023-05-19T01:35:14;9.40;99.90
3614;DHT22;1821;50.936;6.854;2023-05-19T01:35:58;9.40;99.90
3614;DHT22;1821;50.936;6.854;2023-05-19T01:36:41;9.40;99.90
3614;DHT22;1821;50.936;6.854;2023-05-19T01:37:28;9.20;99.90
3614;DHT22;1821;50.936;6.854;2023-05-19T01:38:14;8.80;99.90
3614;DHT22;1821;50.936;6.854;2023-05-19T01:38:57;10.90;99.90
3614;DHT22;1821;50.936;6.854;2023-05-19T01:39:41;8.90;99.90
3614;DHT22;1821;50.936;6.854;2023-05-19T01:40:25;8.90;99.90
3614;DHT22;1821;50.936;6.854;2023-05-19T01:41:08;8.80;99.90
3614;DHT22;1821;50.936;6.854;2023-05-19T01:41:53;9.10;99.90
3614;DHT22;1821;50.936;6.854;2023-05-19T01:42:37;9.10;99.90
3614;DHT22;1821;50.936;6.854;2023-05-19T01:43:25;9.40;99.90
3614;DHT22;1821;50.936;6.854;2023-05-19T01:44:07;9.00;99.90
3614;DHT22;1821;50.936;6.854;2023-05-19T01:44:51;9.50;99.90
3614;DHT22;1821;50.936;6.854;2023-05-19T01:45:34;9.00;99.90
3614;DHT22;1821;50.936;6.854;2023-05-19T01:46:18;9.30;99.90
3614;DHT22;1821;50.936;6.854;2023-05-19T01:47:00;9.00;99.90
3614;DHT22;1821;50.936;6.854;2023-05-19T01:47:45;9.00;99.90
3614;DHT22;1821;50.936;6.854;2023-05-19T01:48:28;9.20;99.90
3614;DHT22;1821;50.936;6.854;2023-05-19T01:49:11;9.10;99.90
3614;DHT22;1821;50.936;6.854;2023-05-19T01:49:56;9.20;99.90
3614;DHT22;1821;50.936;6.854;2023-05-19T01:50:39;8.80;99.90
3614;DHT22;1821;50.936;6.854;2023-05-19T01:51:21;8.90;99.90
3614;DHT22;1821;50.936;6.854;2023-05-19T01:52:05;9.30;99.90
3614;DHT22;1821;50.936;6.854;2023-05-19T01:52:47;9.00;99.90
3614;DHT22;1821;50.936;6.854;2023-05-19T01:53:30;9.30;99.90
3614;DHT22;1821;50.936;6.854;2023-05-19T01:54:12;9.00;99.90
3614;DHT22;1821;50.936;6.854;2023-05-19T01:54:54;9.20;99.90
3614;DHT22;1821;50.936;6.854;2023-05-19T01:55:49;9.10;99.90
3614;DHT22;1821;50.936;6.854;2023-05-19T01:56:49;9.10;99.90
3614;DHT22;1821;50.936;6.854;2023-05-19T01:58:44;9.20;99.90
3614;DHT22;1821;50.936;6.854;2023-05-19T02:02:35;8.70;99.90
3614;DHT22;1821;50.936;6.854;2023-05-19T02:05:30;8.80;99.90
3614;DHT22;1821;50.936;6.854;2023-05-19T02:07:36;9.60;99.90
3614;DHT22;1821;50.936;6.854;2023-05-19T02:09:31;8.90;99.90
3614;DHT22;1821;50.936;6.854;2023-05-19T02:10:22;8.80;99.90
3614;DHT22;1821;50.936;6.854;2023-05-19T02:12:00;8.70;99.90
3614;DHT22;1821;50.936;6.854;2023-05-19T02:12:24;8.40;99.90
3614;DHT22;1821;50.936;6.854;2023-05-19T02:13:12;9.10;99.90
3614;DHT22;1821;50.936;6.854;2023-05-19T02:13:56;8.70;99.90
3614;DHT22;1821;50.936;6.854;2023-05-19T02:15:36;8.90;99.90
3614;DHT22;1821;50.936;6.854;2023-05-19T02:16:20;8.90;99.90
3614;DHT22;1821;50.936;6.854;2023-05-19T02:17:05;9.00;99.90
3614;DHT22;1821;50.936;6.854;2023-05-19T02:17:52;9.10;99.90
3614;DHT22;1821;50.936;6.854;2023-05-19T02:18:39;8.50;99.90
3614;DHT22;1821;50.936;6.854;2023-05-19T02:19:38;8.50;99.90
3614;DHT22;1821;50.936;6.854;2023-05-19T02:20:23;8.70;99.90
3614;DHT22;1821;50.936;6.854;2023-05-19T02:21:05;8.50;99.90
3614;DHT22;1821;50.936;6.854;2023-05-19T02:21:47;8.70;99.90
3614;DHT22;1821;50.936;6.854;2023-05-19T02:22:29;8.60;99.90
3614;DHT22;1821;50.936;6.854;2023-05-19T02:23:11;9.00;99.90
3614;DHT22;1821;50.936;6.854;2023-05-19T02:23:53;8.70;99.90
3614;DHT22;1821;50.936;6.854;2023-05-19T02:24:38;9.20;99.90
3614;DHT22;1821;50.936;6.854;2023-05-19T02:25:22;9.00;99.90
3614;DHT22;1821;50.936;6.854;2023-05-19T02:26:07;8.70;99.90
3614;DHT22;1821;50.936;6.854;2023-05-19T02:26:50;8.60;99.90
3614;DHT22;1821;50.936;6.854;2023-05-19T02:27:33;8.70;99.90
3614;DHT22;1821;50.936;6.854;2023-05-19T02:28:16;8.60;99.90
3614;DHT22;1821;50.936;6.854;2023-05-19T02:29:01;9.60;99.90
3614;DHT22;1821;50.936;6.854;2023-05-19T02:29:43;8.70;99.90
3614;DHT22;1821;50.936;6.854;2023-05-19T02:30:25;8.60;99.90
3614;DHT22;1821;50.936;6.854;2023-05-19T02:31:07;8.70;99.90
3614;DHT22;1821;50.936;6.854;2023-05-19T02:31:50;8.60;99.90
3614;DHT22;1821;50.936;6.854;2023-05-19T02:32:33;8.80;99.90
3614;DHT22;1821;50.936;6.854;2023-05-19T02:33:15;8.70;99.90
3614;DHT22;1821;50.936;6.854;2023-05-19T02:33:59;8.90;99.90
3614;DHT22;1821;50.936;6.854;2023-05-19T02:35:28;8.50;99.90
3614;DHT22;1821;50.936;6.854;2023-05-19T02:36:13;9.00;99.90
3614;DHT22;1821;50.936;6.854;2023-05-19T02:36:55;8.40;99.90
3614;DHT22;1821;50.936;6.854;2023-05-19T02:37:37;8.40;99.90
3614;DHT22;1821;50.936;6.854;2023-05-19T02:38:19;8.30;99.90
3614;DHT22;1821;50.936;6.854;2023-05-19T02:39:02;8.70;99.90
3614;DHT22;1821;50.936;6.854;2023-05-19T02:39:44;8.70;99.90
3614;DHT22;1821;50.936;6.854;2023-05-19T02:40:26;8.40;99.90
3614;DHT22;1821;50.936;6.854;2023-05-19T02:41:08;8.90;99.90
3614;DHT22;1821;50.936;6.854;2023-05-19T02:41:51;9.00;99.90
3614;DHT22;1821;50.936;6.854;2023-05-19T02:42:33;8.40;99.90
3614;DHT22;1821;50.936;6.854;2023-05-19T02:43:57;8.80;99.90
3614;DHT22;1821;50.936;6.854;2023-05-19T02:44:39;8.40;99.90
3614;DHT22;1821;50.936;6.854;2023-05-19T02:45:21;8.90;99.90
3614;DHT22;1821;50.936;6.854;2023-05-19T02:46:03;8.60;99.90
3614;DHT22;1821;50.936;6.854;2023-05-19T02:46:45;8.50;99.90
3614;DHT22;1821;50.936;6.854;2023-05-19T02:47:27;9.00;99.90
3614;DHT22;1821;50.936;6.854;2023-05-19T02:48:09;8.60;99.90
3614;DHT22;1821;50.936;6.854;2023-05-19T02:48:54;8.90;99.90
3614;DHT22;1821;50.936;6.854;2023-05-19T02:49:36;8.70;99.90
3614;DHT22;1821;50.936;6.854;2023-05-19T02:50:18;8.40;99.90
3614;DHT22;1821;50.936;6.854;2023-05-19T02:51:00;8.60;99.90
3614;DHT22;1821;50.936;6.854;2023-05-19T02:51:42;8.30;99.90
3614;DHT22;1821;50.936;6.854;2023-05-19T02:53:06;8.70;99.90
3614;DHT22;1821;50.936;6.854;2023-05-19T02:53:48;9.00;99.90
3614;DHT22;1821;50.936;6.854;2023-05-19T02:54:31;8.30;99.90
3614;DHT22;1821;50.936;6.854;2023-05-19T02:55:13;8.50;99.90
3614;DHT22;1821;50.936;6.854;2023-05-19T02:55:57;8.80;99.90
3614;DHT22;1821;50.936;6.854;2023-05-19T02:56:39;8.80;99.90
3614;DHT22;1821;50.936;6.854;2023-05-19T02:57:21;8.30;99.90
3614;DHT22;1821;50.936;6.854;2023-05-19T02:58:04;8.40;99.90
3614;DHT22;1821;50.936;6.854;2023-05-19T02:58:48;8.50;99.90
3614;DHT22;1821;50.936;6.854;2023-05-19T02:59:29;8.50;99.90
3614;DHT22;1821;50.936;6.854;2023-05-19T03:00:12;8.00;99.90
3614;DHT22;1821;50.936;6.854;2023-05-19T03:00:54;8.60;99.90
3614;DHT22;1821;50.936;6.854;2023-05-19T03:01:36;8.90;99.90
3614;DHT22;1821;50.936;6.854;2023-05-19T03:02:19;8.50;99.90
3614;DHT22;1821;50.936;6.854;2023-05-19T03:03:01;8.30;99.90
3614;DHT22;1821;50.936;6.854;2023-05-19T03:03:46;8.30;99.90
3614;DHT22;1821;50.936;6.854;2023-05-19T03:04:30;8.60;99.90
3614;DHT22;1821;50.936;6.854;2023-05-19T03:05:13;8.60;99.90
3614;DHT22;1821;50.936;6.854;2023-05-19T03:05:54;8.30;99.90
3614;DHT22;1821;50.936;6.854;2023-05-19T03:06:37;8.40;99.90
3614;DHT22;1821;50.936;6.854;2023-05-19T03:07:19;8.40;99.90
3614;DHT22;1821;50.936;6.854;2023-05-19T03:08:06;8.50;99.90
3614;DHT22;1821;50.936;6.854;2023-05-19T03:08:48;8.50;99.90
3614;DHT22;1821;50.936;6.854;2023-05-19T03:09:30;8.40;99.90
3614;DHT22;1821;50.936;6.854;2023-05-19T03:10:55;8.30;99.90
3614;DHT22;1821;50.936;6.854;2023-05-19T03:12:20;8.10;99.90
3614;DHT22;1821;50.936;6.854;2023-05-19T03:13:44;8.40;99.90
3614;DHT22;1821;50.936;6.854;2023-05-19T03:14:26;8.60;99.90
3614;DHT22;1821;50.936;6.854;2023-05-19T03:15:08;8.30;99.90
3614;DHT22;1821;50.936;6.854;2023-05-19T03:15:51;8.40;99.90
3614;DHT22;1821;50.936;6.854;2023-05-19T03:16:33;8.50;99.90
3614;DHT22;1821;50.936;6.854;2023-05-19T03:17:15;8.30;99.90
3614;DHT22;1821;50.936;6.854;2023-05-19T03:17:57;7.70;99.90
3614;DHT22;1821;50.936;6.854;2023-05-19T03:18:40;7.90;99.90
3614;DHT22;1821;50.936;6.854;2023-05-19T03:19:23;8.10;99.90
3614;DHT22;1821;50.936;6.854;2023-05-19T03:20:47;8.10;99.90
3614;DHT22;1821;50.936;6.854;2023-05-19T03:21:29;8.10;99.90
3614;DHT22;1821;50.936;6.854;2023-05-19T03:22:13;8.00;99.90
3614;DHT22;1821;50.936;6.854;2023-05-19T03:22:55;7.70;99.90
3614;DHT22;1821;50.936;6.854;2023-05-19T03:23:37;8.10;99.90
3614;DHT22;1821;50.936;6.854;2023-05-19T03:24:19;8.20;99.90
3614;DHT22;1821;50.936;6.854;2023-05-19T03:25:03;7.80;99.90
3614;DHT22;1821;50.936;6.854;2023-05-19T03:26:28;8.30;99.90
3614;DHT22;1821;50.936;6.854;2023-05-19T03:27:10;8.10;99.90
3614;DHT22;1821;50.936;6.854;2023-05-19T03:27:52;8.30;99.90
3614;DHT22;1821;50.936;6.854;2023-05-19T03:28:34;8.50;99.90
3614;DHT22;1821;50.936;6.854;2023-05-19T03:29:18;7.80;99.90
3614;DHT22;1821;50.936;6.854;2023-05-19T03:30:00;8.10;99.90
3614;DHT22;1821;50.936;6.854;2023-05-19T03:30:45;8.20;99.90
3614;DHT22;1821;50.936;6.854;2023-05-19T03:31:30;7.80;99.90
3614;DHT22;1821;50.936;6.854;2023-05-19T03:32:12;8.30;99.90
3614;DHT22;1821;50.936;6.854;2023-05-19T03:32:54;8.10;99.90
3614;DHT22;1821;50.936;6.854;2023-05-19T03:33:36;8.00;99.90
3614;DHT22;1821;50.936;6.854;2023-05-19T03:34:18;8.10;99.90
3614;DHT22;1821;50.936;6.854;2023-05-19T03:35:42;8.10;99.90
3614;DHT22;1821;50.936;6.854;2023-05-19T03:36:25;7.80;99.90
3614;DHT22;1821;50.936;6.854;2023-05-19T03:37:13;8.00;99.90
3614;DHT22;1821;50.936;6.854;2023-05-19T03:37:55;7.90;99.90
3614;DHT22;1821;50.936;6.854;2023-05-19T03:38:36;8.10;99.90
3614;DHT22;1821;50.936;6.854;2023-05-19T03:39:18;7.80;99.90
3614;DHT22;1821;50.936;6.854;2023-05-19T03:40:01;8.00;99.90
3614;DHT22;1821;50.936;6.854;2023-05-19T03:40:45;7.80;99.90
3614;DHT22;1821;50.936;6.854;2023-05-19T03:41:27;8.00;99.90
3614;DHT22;1821;50.936;6.854;2023-05-19T03:42:51;7.80;99.90
3614;DHT22;1821;50.936;6.854;2023-05-19T03:43:34;7.90;99.90
3614;DHT22;1821;50.936;6.854;2023-05-19T03:44:16;7.90;99.90
3614;DHT22;1821;50.936;6.854;2023-05-19T03:45:41;8.00;99.90
3614;DHT22;1821;50.936;6.854;2023-05-19T03:47:09;8.50;99.90
3614;DHT22;1821;50.936;6.854;2023-05-19T03:47:51;8.00;99.90
3614;DHT22;1821;50.936;6.854;2023-05-19T03:48:35;8.30;99.90
3614;DHT22;1821;50.936;6.854;2023-05-19T03:49:18;8.20;99.90
3614;DHT22;1821;50.936;6.854;2023-05-19T03:50:00;8.00;99.90
3614;DHT22;1821;50.936;6.854;2023-05-19T03:50:42;8.10;99.90
3614;DHT22;1821;50.936;6.854;2023-05-19T03:51:25;8.00;99.90
3614;DHT22;1821;50.936;6.854;2023-05-19T03:52:11;7.90;99.90
3614;DHT22;1821;50.936;6.854;2023-05-19T03:52:53;7.70;99.90
3614;DHT22;1821;50.936;6.854;2023-05-19T03:53:35;7.70;99.90
3614;DHT22;1821;50.936;6.854;2023-05-19T03:55:03;7.90;99.90
3614;DHT22;1821;50.936;6.854;2023-05-19T03:55:45;7.70;99.90
3614;DHT22;1821;50.936;6.854;2023-05-19T03:56:31;7.70;99.90
3614;DHT22;1821;50.936;6.854;2023-05-19T03:57:15;8.00;99.90
3614;DHT22;1821;50.936;6.854;2023-05-19T03:57:58;8.10;99.90
3614;DHT22;1821;50.936;6.854;2023-05-19T03:58:40;8.10;99.90
3614;DHT22;1821;50.936;6.854;2023-05-19T03:59:25;8.10;99.90
3614;DHT22;1821;50.936;6.854;2023-05-19T04:00:08;7.90;99.90
3614;DHT22;1821;50.936;6.854;2023-05-19T04:00:51;8.10;99.90
3614;DHT22;1821;50.936;6.854;2023-05-19T04:01:33;7.90;99.90
3614;DHT22;1821;50.936;6.854;2023-05-19T04:02:15;8.10;99.90
3614;DHT22;1821;50.936;6.854;2023-05-19T04:02:58;11.10;99.90
3614;DHT22;1821;50.936;6.854;2023-05-19T04:03:41;8.20;99.90
3614;DHT22;1821;50.936;6.854;2023-05-19T04:04:25;8.30;99.90
3614;DHT22;1821;50.936;6.854;2023-05-19T04:05:09;7.90;99.90
3614;DHT22;1821;50.936;6.854;2023-05-19T04:06:36;8.10;99.90
3614;DHT22;1821;50.936;6.854;2023-05-19T04:07:18;8.20;99.90
3614;DHT22;1821;50.936;6.854;2023-05-19T04:08:00;8.00;99.90
3614;DHT22;1821;50.936;6.854;2023-05-19T04:08:42;8.10;99.90
3614;DHT22;1821;50.936;6.854;2023-05-19T04:09:24;8.40;99.90
3614;DHT22;1821;50.936;6.854;2023-05-19T04:10:07;8.00;99.90
3614;DHT22;1821;50.936;6.854;2023-05-19T04:11:33;8.40;99.90
3614;DHT22;1821;50.936;6.854;2023-05-19T04:12:17;8.00;99.90
3614;DHT22;1821;50.936;6.854;2023-05-19T04:12:59;8.10;99.90
3614;DHT22;1821;50.936;6.854;2023-05-19T04:13:41;7.90;99.90
3614;DHT22;1821;50.936;6.854;2023-05-19T04:14:25;7.90;99.90
3614;DHT22;1821;50.936;6.854;2023-05-19T04:15:08;8.30;99.90
3614;DHT22;1821;50.936;6.854;2023-05-19T04:15:52;8.00;99.90
3614;DHT22;1821;50.936;6.854;2023-05-19T04:16:34;8.50;99.90
3614;DHT22;1821;50.936;6.854;2023-05-19T04:18:00;8.00;99.90
3614;DHT22;1821;50.936;6.854;2023-05-19T04:19:27;8.50;99.90
3614;DHT22;1821;50.936;6.854;2023-05-19T04:20:51;8.00;99.90
3614;DHT22;1821;50.936;6.854;2023-05-19T04:21:33;8.10;99.90
3614;DHT22;1821;50.936;6.854;2023-05-19T04:22:15;7.80;99.90
3614;DHT22;1821;50.936;6.854;2023-05-19T04:22:57;7.90;99.90
3614;DHT22;1821;50.936;6.854;2023-05-19T04:23:39;7.90;99.90
3614;DHT22;1821;50.936;6.854;2023-05-19T04:24:22;7.90;99.90
3614;DHT22;1821;50.936;6.854;2023-05-19T04:25:04;7.90;99.90
3614;DHT22;1821;50.936;6.854;2023-05-19T04:25:49;8.00;99.90
3614;DHT22;1821;50.936;6.854;2023-05-19T04:26:31;8.00;99.90
3614;DHT22;1821;50.936;6.854;2023-05-19T04:27:15;8.20;99.90
3614;DHT22;1821;50.936;6.854;2023-05-19T04:27:58;7.90;99.90
3614;DHT22;1821;50.936;6.854;2023-05-19T04:28:43;8.00;99.90
3614;DHT22;1821;50.936;6.854;2023-05-19T04:29:25;7.90;99.90
3614;DHT22;1821;50.936;6.854;2023-05-19T04:30:10;8.10;99.90
3614;DHT22;1821;50.936;6.854;2023-05-19T04:30:52;8.00;99.90
3614;DHT22;1821;50.936;6.854;2023-05-19T04:31:35;8.20;99.90
3614;DHT22;1821;50.936;6.854;2023-05-19T04:32:17;8.20;99.90
3614;DHT22;1821;50.936;6.854;2023-05-19T04:32:59;8.60;99.90
3614;DHT22;1821;50.936;6.854;2023-05-19T04:33:44;8.30;99.90
3614;DHT22;1821;50.936;6.854;2023-05-19T04:34:29;8.50;99.90
3614;DHT22;1821;50.936;6.854;2023-05-19T04:35:13;8.70;99.90
3614;DHT22;1821;50.936;6.854;2023-05-19T04:35:58;8.40;99.90
3614;DHT22;1821;50.936;6.854;2023-05-19T04:36:40;8.60;99.90
3614;DHT22;1821;50.936;6.854;2023-05-19T04:37:22;8.70;99.90
3614;DHT22;1821;50.936;6.854;2023-05-19T04:38:04;8.40;99.90
3614;DHT22;1821;50.936;6.854;2023-05-19T04:38:46;8.70;99.90
3614;DHT22;1821;50.936;6.854;2023-05-19T04:39:29;8.60;99.90
3614;DHT22;1821;50.936;6.854;2023-05-19T04:40:12;8.50;99.90
3614;DHT22;1821;50.936;6.854;2023-05-19T04:40:54;8.90;99.90
3614;DHT22;1821;50.936;6.854;2023-05-19T04:41:37;8.60;99.90
3614;DHT22;1821;50.936;6.854;2023-05-19T04:42:21;8.40;99.90
3614;DHT22;1821;50.936;6.854;2023-05-19T04:43:08;8.50;99.90
3614;DHT22;1821;50.936;6.854;2023-05-19T04:43:51;8.80;99.90
3614;DHT22;1821;50.936;6.854;2023-05-19T04:44:34;8.60;99.90
3614;DHT22;1821;50.936;6.854;2023-05-19T04:45:17;8.70;99.90
3614;DHT22;1821;50.936;6.854;2023-05-19T04:45:58;8.80;99.90
3614;DHT22;1821;50.936;6.854;2023-05-19T04:46:40;8.50;99.90
3614;DHT22;1821;50.936;6.854;2023-05-19T04:47:23;8.50;99.90
3614;DHT22;1821;50.936;6.854;2023-05-19T04:49:36;9.00;99.90
3614;DHT22;1821;50.936;6.854;2023-05-19T04:50:19;8.50;99.90
3614;DHT22;1821;50.936;6.854;2023-05-19T04:51:46;8.60;99.90
3614;DHT22;1821;50.936;6.854;2023-05-19T04:52:31;8.70;99.90
3614;DHT22;1821;50.936;6.854;2023-05-19T04:53:14;8.90;99.90
3614;DHT22;1821;50.936;6.854;2023-05-19T04:53:56;8.70;99.90
3614;DHT22;1821;50.936;6.854;2023-05-19T04:54:40;8.50;99.90
3614;DHT22;1821;50.936;6.854;2023-05-19T04:55:23;8.50;99.90
3614;DHT22;1821;50.936;6.854;2023-05-19T04:56:05;8.60;99.90
3614;DHT22;1821;50.936;6.854;2023-05-19T04:56:47;8.70;99.90
3614;DHT22;1821;50.936;6.854;2023-05-19T04:57:29;8.80;99.90
3614;DHT22;1821;50.936;6.854;2023-05-19T04:58:11;8.70;99.90
3614;DHT22;1821;50.936;6.854;2023-05-19T04:58:56;9.10;99.90
3614;DHT22;1821;50.936;6.854;2023-05-19T05:01:06;8.80;99.90
3614;DHT22;1821;50.936;6.854;2023-05-19T05:01:50;9.10;99.90
3614;DHT22;1821;50.936;6.854;2023-05-19T05:02:32;9.00;99.90
3614;DHT22;1821;50.936;6.854;2023-05-19T05:03:14;9.30;99.90
3614;DHT22;1821;50.936;6.854;2023-05-19T05:03:57;9.00;99.90
3614;DHT22;1821;50.936;6.854;2023-05-19T05:04:40;9.20;99.90
3614;DHT22;1821;50.936;6.854;2023-05-19T05:05:24;9.30;99.90
3614;DHT22;1821;50.936;6.854;2023-05-19T05:06:08;8.80;99.90
3614;DHT22;1821;50.936;6.854;2023-05-19T05:06:51;9.00;99.90
3614;DHT22;1821;50.936;6.854;2023-05-19T05:07:33;9.00;99.90
3614;DHT22;1821;50.936;6.854;2023-05-19T05:08:15;8.80;99.90
3614;DHT22;1821;50.936;6.854;2023-05-19T05:09:05;9.10;99.90
3614;DHT22;1821;50.936;6.854;2023-05-19T05:09:48;8.90;99.90
3614;DHT22;1821;50.936;6.854;2023-05-19T05:10:30;8.90;99.90
3614;DHT22;1821;50.936;6.854;2023-05-19T05:11:12;9.40;99.90
3614;DHT22;1821;50.936;6.854;2023-05-19T05:11:55;9.40;99.90
3614;DHT22;1821;50.936;6.854;2023-05-19T05:13:22;9.40;99.90
3614;DHT22;1821;50.936;6.854;2023-05-19T05:14:05;9.20;99.90
3614;DHT22;1821;50.936;6.854;2023-05-19T05:14:47;9.00;99.90
3614;DHT22;1821;50.936;6.854;2023-05-19T05:15:29;9.00;99.90
3614;DHT22;1821;50.936;6.854;2023-05-19T05:16:12;9.00;99.90
3614;DHT22;1821;50.936;6.854;2023-05-19T05:16:54;9.60;99.90
3614;DHT22;1821;50.936;6.854;2023-05-19T05:17:39;5.80;99.90
3614;DHT22;1821;50.936;6.854;2023-05-19T05:18:21;9.20;99.90
3614;DHT22;1821;50.936;6.854;2023-05-19T05:19:06;9.40;99.90
3614;DHT22;1821;50.936;6.854;2023-05-19T05:19:51;9.20;99.90
3614;DHT22;1821;50.936;6.854;2023-05-19T05:20:35;9.40;99.90
3614;DHT22;1821;50.936;6.854;2023-05-19T05:21:18;9.30;99.90
3614;DHT22;1821;50.936;6.854;2023-05-19T05:22:00;9.50;99.90
3614;DHT22;1821;50.936;6.854;2023-05-19T05:22:43;9.60;99.90
3614;DHT22;1821;50.936;6.854;2023-05-19T05:23:25;9.50;99.90
3614;DHT22;1821;50.936;6.854;2023-05-19T05:24:08;9.30;99.90
3614;DHT22;1821;50.936;6.854;2023-05-19T05:24:51;9.10;99.90
3614;DHT22;1821;50.936;6.854;2023-05-19T05:25:33;9.50;99.90
3614;DHT22;1821;50.936;6.854;2023-05-19T05:26:19;9.70;99.90
3614;DHT22;1821;50.936;6.854;2023-05-19T05:27:04;9.60;99.90
3614;DHT22;1821;50.936;6.854;2023-05-19T05:27:48;9.40;99.90
3614;DHT22;1821;50.936;6.854;2023-05-19T05:28:30;9.50;99.90
3614;DHT22;1821;50.936;6.854;2023-05-19T05:29:13;9.80;99.90